Weather at West Branch Community Airport

Public forecast

Using degrees Fahrenheit for public forecast. Weather courtesy of forecast.io.

Closest aviation weather report (METAR) to West Branch Community Airport

Closest report is Roscommon County - Blodgett Memorial Airport, 22.2 nm (41.1 km) WNW. Retrieved 2020/09/20 03:53 UTC (44 minutes ago):

KHTL 200353Z AUTO 00000KT 10SM CLR 03/02 A3039 RMK AO2 SLP300 T00330017

Closest aviation forecast (TAF) to West Branch Community Airport

Closest forecast is MBS International Airport, 43.0 nm (79.6 km) S. Retrieved 2020-09-20 00:42 UTC (4 hours ago):

TAF KMBS 192340Z 2000/2024 15004KT P6SM SCT250 FM201500 16008KT P6SM SKC